Wetterdaten: Woche 08.02.21 - 14.02.21 (KW6)
Datum Zeit Temp. Aussen Temp. o. S. Temp +5cm Feuchte Auss Luftdruck Regen Sonnenschein Regendauer Solar Windben Empfang
08.02.2021 00:00 -4,2 C -4,4 C -5,5 C 94 % 999,8 hPa 0,0 l/m 0,00 h 0,00 h 0 W/m 0,7 km/h (0 Bft) 97,83 %
08.02.2021 01:00 -4,4 C -4,6 C -6,1 C 93 % 999,8 hPa 0,0 l/m 0,00 h 0,00 h 0 W/m 0,9 km/h (0 Bft) 96,01 %
08.02.2021 02:00 -4,5 C -5,0 C -6,1 C 91 % 999,7 hPa 0,0 l/m 0,00 h 0,00 h 0 W/m 0,3 km/h (0 Bft) 95,24 %
08.02.2021 03:00 -4,6 C -5,0 C -6,2 C 91 % 999,8 hPa 0,0 l/m 0,00 h 0,00 h 0 W/m 1,5 km/h (1 Bft) 96,66 %
08.02.2021 04:00 -4,7 C -5,0 C -6,6 C 90 % 999,9 hPa 0,0 l/m 0,00 h 0,00 h 0 W/m 0,9 km/h (0 Bft) 95,93 %
08.02.2021 05:00 -5,0 C -5,7 C -6,9 C 90 % 1000,1 hPa 0,0 l/m 0,00 h 0,00 h 0 W/m 1,4 km/h (1 Bft) 98,59 %
08.02.2021 06:00 -5,5 C -6,1 C -7,4 C 92 % 1000,2 hPa 0,0 l/m 0,00 h 0,00 h 0 W/m 0,7 km/h (0 Bft) 97,59 %
08.02.2021 07:00 -5,8 C -6,1 C -7,7 C 93 % 1000,3 hPa 0,0 l/m 0,00 h 0,00 h 0 W/m 0,9 km/h (0 Bft) 96,88 %
08.02.2021 08:00 -6,1 C -6,2 C -7,7 C 93 % 1000,5 hPa 0,0 l/m 0,00 h 0,00 h 7 W/m 0,5 km/h (0 Bft) 97,59 %
08.02.2021 09:00 -5,9 C -6,0 C -7,2 C 93 % 1000,6 hPa 0,0 l/m 0,00 h 0,00 h 15 W/m 0,5 km/h (0 Bft) 98,29 %
08.02.2021 10:00 -5,5 C -5,2 C -6,4 C 92 % 1000,8 hPa 0,0 l/m 0,00 h 0,00 h 31 W/m 1,0 km/h (0 Bft) 97,22 %
08.02.2021 11:00 -4,8 C -4,1 C -5,4 C 91 % 1000,8 hPa 0,0 l/m 0,00 h 0,00 h 51 W/m 0,2 km/h (0 Bft) 95,95 %
08.02.2021 12:00 -4,4 C -3,6 C -4,9 C 89 % 1000,5 hPa 0,0 l/m 0,00 h 0,00 h 47 W/m 0,2 km/h (0 Bft) 97,43 %
08.02.2021 13:00 -4,1 C -3,4 C -4,7 C 88 % 1000,3 hPa 0,0 l/m 0,00 h 0,00 h 41 W/m 0,7 km/h (0 Bft) 97,79 %
08.02.2021 14:00 -4,3 C -4,3 C -6,2 C 86 % 1000,2 hPa 0,0 l/m 0,00 h 0,00 h 26 W/m 0,5 km/h (0 Bft) 98,07 %
08.02.2021 15:00 -4,8 C -5,1 C -7,3 C 86 % 1000,5 hPa 0,0 l/m 0,00 h 0,00 h 14 W/m 0,4 km/h (0 Bft) 97,36 %
08.02.2021 16:00 -5,3 C -5,8 C -7,7 C 87 % 1000,8 hPa 0,0 l/m 0,00 h 0,00 h 8 W/m 0,1 km/h (0 Bft) 95,41 %
08.02.2021 17:00 -5,6 C -6,1 C -8,3 C 88 % 1001,1 hPa 0,0 l/m 0,00 h 0,00 h 0 W/m 0,4 km/h (0 Bft) 99,37 %
08.02.2021 18:00 -6,1 C -6,7 C -8,4 C 89 % 1001,6 hPa 0,0 l/m 0,00 h 0,00 h 0 W/m 1,0 km/h (0 Bft) 96,06 %
08.02.2021 19:00 -6,5 C -7,0 C -8,8 C 89 % 1002,0 hPa 0,0 l/m 0,00 h 0,00 h 0 W/m 1,6 km/h (1 Bft) 94,70 %
08.02.2021 20:00 -6,6 C -7,2 C -8,8 C 89 % 1002,4 hPa 0,0 l/m 0,00 h 0,00 h 0 W/m 0,6 km/h (0 Bft) 97,94 %
08.02.2021 21:00 -6,8 C -7,2 C -8,8 C 89 % 1002,8 hPa 0,0 l/m 0,00 h 0,00 h 0 W/m 0,5 km/h (0 Bft) 95,59 %
08.02.2021 22:00 -7,0 C -7,2 C -9,3 C 89 % 1003,2 hPa 0,0 l/m 0,00 h 0,00 h 0 W/m 0,1 km/h (0 Bft) 96,09 %
08.02.2021 23:00 -7,0 C -7,5 C -9,4 C 89 % 1003,6 hPa 0,0 l/m 0,00 h 0,00 h 0 W/m 0,1 km/h (0 Bft) 94,98 %
09.02.2021 00:00 -7,2 C -7,8 C -9,4 C 89 % 1004,1 hPa 0,0 l/m 0,00 h 0,00 h 0 W/m 0,4 km/h (0 Bft) 95,86 %
09.02.2021 01:00 -7,3 C -7,8 C -9,5 C 89 % 1004,5 hPa 0,0 l/m 0,00 h 0,00 h 0 W/m 0,5 km/h (0 Bft) 96,37 %
09.02.2021 02:00 -7,8 C -8,3 C -10,1 C 89 % 1004,8 hPa 0,0 l/m 0,00 h 0,00 h 0 W/m 0,0 km/h (0 Bft) 98,65 %
09.02.2021 03:00 -8,2 C -8,8 C -10,5 C 89 % 1005,1 hPa 0,0 l/m 0,00 h 0,00 h 0 W/m 0,0 km/h (0 Bft) 99,22 %
09.02.2021 04:00 -8,5 C -8,9 C -10,8 C 89 % 1005,5 hPa 0,0 l/m 0,00 h 0,00 h 0 W/m 0,4 km/h (0 Bft) 94,10 %
09.02.2021 05:00 -8,7 C -9,1 C -11,1 C 90 % 1005,9 hPa 0,0 l/m 0,00 h 0,00 h 0 W/m 0,0 km/h (0 Bft) 95,69 %
09.02.2021 06:00 -9,0 C -9,6 C -11,6 C 90 % 1006,3 hPa 0,0 l/m 0,00 h 0,00 h 0 W/m 0,0 km/h (0 Bft) 95,66 %
09.02.2021 07:00 -9,5 C -10,4 C -12,0 C 89 % 1007,0 hPa 0,0 l/m 0,00 h 0,00 h 0 W/m 0,0 km/h (0 Bft) 97,30 %
09.02.2021 08:00 -9,6 C -9,4 C -11,0 C 90 % 1007,5 hPa 0,0 l/m 0,00 h 0,00 h 5 W/m 0,0 km/h (0 Bft) 94,92 %
09.02.2021 09:00 -9,0 C -8,3 C -10,1 C 91 % 1007,9 hPa 0,0 l/m 0,00 h 0,00 h 14 W/m 0,0 km/h (0 Bft) 97,67 %
09.02.2021 10:00 -7,7 C -6,8 C -8,7 C 92 % 1007,9 hPa 0,0 l/m 0,00 h 0,00 h 22 W/m 0,0 km/h (0 Bft) 95,12 %
09.02.2021 11:00 -6,1 C -2,8 C -7,4 C 91 % 1008,2 hPa 0,0 l/m 0,00 h 0,00 h 40 W/m 0,0 km/h (0 Bft) 98,01 %
09.02.2021 12:00 -2,6 C 3,6 C 2,0 C 81 % 1008,3 hPa 0,2 l/m 0,00 h 0,10 h 99 W/m 0,0 km/h (0 Bft) 95,74 %
09.02.2021 13:00 -1,0 C 3,8 C 2,8 C 73 % 1008,2 hPa 0,0 l/m 0,00 h 0,00 h 154 W/m 0,0 km/h (0 Bft) 96,87 %
09.02.2021 14:00 -0,3 C 4,4 C 3,8 C 69 % 1008,4 hPa 1,0 l/m 1,00 h 0,00 h 342 W/m 0,0 km/h (0 Bft) 97,51 %
09.02.2021 15:00 -0,8 C 1,4 C -0,8 C 69 % 1008,8 hPa 1,0 l/m 1,00 h 0,00 h 312 W/m 0,0 km/h (0 Bft) 99,22 %
09.02.2021 16:00 -2,5 C -2,0 C -5,8 C 71 % 1008,9 hPa 0,6 l/m 0,77 h 0,00 h 151 W/m 0,0 km/h (0 Bft) 97,59 %
09.02.2021 17:00 -4,7 C -5,8 C -9,1 C 76 % 1008,7 hPa 0,0 l/m 0,13 h 0,00 h 21 W/m 0,0 km/h (0 Bft) 92,31 %
09.02.2021 18:00 -5,8 C -6,5 C -9,5 C 80 % 1008,5 hPa 0,0 l/m 0,00 h 0,00 h 0 W/m 0,0 km/h (0 Bft) 98,87 %
09.02.2021 19:00 -6,1 C -6,7 C -9,5 C 82 % 1009,0 hPa 0,0 l/m 0,00 h 0,00 h 0 W/m 0,0 km/h (0 Bft) 96,02 %
09.02.2021 20:00 -6,4 C -7,1 C -10,0 C 84 % 1009,1 hPa 0,0 l/m 0,00 h 0,00 h 0 W/m 0,0 km/h (0 Bft) 97,29 %
09.02.2021 21:00 -6,5 C -7,3 C -9,8 C 85 % 1009,5 hPa 0,0 l/m 0,00 h 0,00 h 0 W/m 0,0 km/h (0 Bft) 96,37 %
09.02.2021 22:00 -7,4 C -8,5 C -11,5 C 84 % 1009,3 hPa 0,0 l/m 0,00 h 0,00 h 0 W/m 0,0 km/h (0 Bft) 97,61 %
09.02.2021 23:00 -8,4 C -9,4 C -12,3 C 84 % 1009,4 hPa 0,0 l/m 0,00 h 0,00 h 0 W/m 0,0 km/h (0 Bft) 95,64 %
10.02.2021 00:00 -9,3 C -10,2 C -12,9 C 84 % 1009,4 hPa 0,0 l/m 0,00 h 0,00 h 0 W/m 0,0 km/h (0 Bft) 96,26 %
10.02.2021 01:00 -10,0 C -10,6 C -13,3 C 85 % 1009,5 hPa 0,0 l/m 0,00 h 0,00 h 0 W/m 0,0 km/h (0 Bft) 96,83 %
10.02.2021 02:00 -10,4 C -11,0 C -13,7 C 85 % 1009,5 hPa 0,0 l/m 0,00 h 0,00 h 0 W/m 0,0 km/h (0 Bft) 92,96 %
10.02.2021 03:00 -10,7 C -11,2 C -13,7 C 86 % 1009,2 hPa 0,0 l/m 0,00 h 0,00 h 0 W/m 0,0 km/h (0 Bft) 95,51 %
10.02.2021 04:00 -10,5 C -10,6 C -13,2 C 88 % 1009,2 hPa 0,0 l/m 0,00 h 0,00 h 0 W/m 0,0 km/h (0 Bft) 97,84 %
10.02.2021 05:00 -10,0 C -10,2 C -12,7 C 89 % 1009,4 hPa 0,0 l/m 0,00 h 0,00 h 0 W/m 0,0 km/h (0 Bft) 97,94 %
10.02.2021 06:00 -10,0 C -10,4 C -12,8 C 89 % 1009,9 hPa 0,0 l/m 0,00 h 0,00 h 0 W/m 0,0 km/h (0 Bft) 97,64 %
10.02.2021 07:00 -9,6 C -9,9 C -12,2 C 90 % 1010,3 hPa 0,0 l/m 0,00 h 0,00 h 0 W/m 0,0 km/h (0 Bft) 96,93 %
10.02.2021 08:00 -9,4 C -9,5 C -11,6 C 90 % 1011,1 hPa 0,0 l/m 0,00 h 0,00 h 14 W/m 0,0 km/h (0 Bft) 93,53 %
10.02.2021 09:00 -8,8 C -8,6 C -10,8 C 90 % 1011,9 hPa 0,0 l/m 0,00 h 0,00 h 31 W/m 0,0 km/h (0 Bft) 94,68 %
10.02.2021 10:00 -7,3 C -5,7 C -8,1 C 91 % 1012,8 hPa 0,0 l/m 0,00 h 0,00 h 107 W/m 0,0 km/h (0 Bft) 98,08 %
10.02.2021 11:00 -4,4 C -0,7 C -4,9 C 89 % 1013,3 hPa 0,0 l/m 0,53 h 0,00 h 254 W/m 0,0 km/h (0 Bft) 97,88 %
10.02.2021 12:00 -2,0 C 2,2 C 1,4 C 84 % 1013,7 hPa 0,0 l/m 0,77 h 0,00 h 381 W/m 1,1 km/h (1 Bft) 98,16 %
10.02.2021 13:00 -0,6 C 2,2 C 1,5 C 81 % 1014,2 hPa 0,2 l/m 1,00 h 0,00 h 381 W/m 0,4 km/h (0 Bft) 98,50 %
10.02.2021 14:00 -0,8 C -0,5 C -2,2 C 82 % 1014,8 hPa 0,2 l/m 0,27 h 0,00 h 152 W/m 0,4 km/h (0 Bft) 98,50 %
10.02.2021 15:00 -1,9 C -2,2 C -4,5 C 84 % 1015,6 hPa 0,0 l/m 0,00 h 0,00 h 62 W/m 0,4 km/h (0 Bft) 96,50 %
10.02.2021 16:00 -2,3 C -2,7 C -5,0 C 85 % 1016,5 hPa 0,0 l/m 0,00 h 0,00 h 30 W/m 0,3 km/h (0 Bft) 97,80 %
10.02.2021 17:00 -2,6 C -3,2 C -5,5 C 85 % 1017,4 hPa 0,0 l/m 0,00 h 0,00 h 9 W/m 0,0 km/h (0 Bft) 97,87 %
10.02.2021 18:00 -3,0 C -3,3 C -6,0 C 85 % 1018,3 hPa 0,0 l/m 0,00 h 0,00 h 0 W/m 0,0 km/h (0 Bft) 94,96 %
10.02.2021 19:00 -3,1 C -3,8 C -6,1 C 84 % 1019,1 hPa 0,0 l/m 0,00 h 0,00 h 0 W/m 0,0 km/h (0 Bft) 96,57 %
10.02.2021 20:00 -3,6 C -4,5 C -7,3 C 84 % 1019,9 hPa 0,0 l/m 0,00 h 0,00 h 0 W/m 0,0 km/h (0 Bft) 98,58 %
10.02.2021 21:00 -4,5 C -5,9 C -8,5 C 85 % 1021,2 hPa 0,0 l/m 0,00 h 0,00 h 0 W/m 0,0 km/h (0 Bft) 94,04 %
10.02.2021 22:00 -5,2 C -5,7 C -8,1 C 86 % 1022,2 hPa 0,0 l/m 0,00 h 0,00 h 0 W/m 0,0 km/h (0 Bft) 97,94 %
10.02.2021 23:00 -5,1 C -5,8 C -8,2 C 88 % 1023,0 hPa 0,0 l/m 0,00 h 0,00 h 0 W/m 0,0 km/h (0 Bft) 97,08 %
11.02.2021 00:00 -5,8 C -7,0 C -9,4 C 87 % 1024,0 hPa 0,0 l/m 0,00 h 0,00 h 0 W/m 0,0 km/h (0 Bft) 96,83 %
11.02.2021 01:00 -6,7 C -7,8 C -10,1 C 87 % 1024,7 hPa 0,0 l/m 0,00 h 0,00 h 0 W/m 0,0 km/h (0 Bft) 97,15 %
11.02.2021 02:00 -7,4 C -8,5 C -10,6 C 88 % 1025,3 hPa 0,0 l/m 0,00 h 0,00 h 0 W/m 0,0 km/h (0 Bft) 96,65 %
11.02.2021 03:00 -8,1 C -8,9 C -11,2 C 88 % 1025,8 hPa 0,0 l/m 0,00 h 0,00 h 0 W/m 0,0 km/h (0 Bft) 94,95 %
11.02.2021 04:00 -8,6 C -9,2 C -11,3 C 89 % 1026,6 hPa 0,0 l/m 0,00 h 0,00 h 0 W/m 0,0 km/h (0 Bft) 95,90 %
11.02.2021 05:00 -8,9 C -9,6 C -11,6 C 90 % 1027,3 hPa 0,0 l/m 0,00 h 0,00 h 0 W/m 0,0 km/h (0 Bft) 99,65 %
11.02.2021 06:00 -9,4 C -10,4 C -12,1 C 90 % 1027,8 hPa 0,0 l/m 0,00 h 0,00 h 0 W/m 0,0 km/h (0 Bft) 96,39 %
11.02.2021 07:00 -10,0 C -10,7 C -12,4 C 90 % 1028,5 hPa 0,0 l/m 0,00 h 0,00 h 0 W/m 0,0 km/h (0 Bft) 97,60 %
11.02.2021 08:00 -10,1 C -10,0 C -12,0 C 91 % 1029,3 hPa 0,0 l/m 0,00 h 0,00 h 10 W/m 0,0 km/h (0 Bft) 94,85 %
11.02.2021 09:00 -9,5 C -8,4 C -10,4 C 92 % 1029,8 hPa 0,0 l/m 0,00 h 0,00 h 20 W/m 0,0 km/h (0 Bft) 97,86 %
11.02.2021 10:00 -7,5 C -5,4 C -7,9 C 94 % 1030,2 hPa 0,0 l/m 0,00 h 0,00 h 28 W/m 0,0 km/h (0 Bft) 95,85 %
11.02.2021 11:00 -4,6 C 0,2 C -5,4 C 96 % 1030,5 hPa 0,0 l/m 0,33 h 0,00 h 127 W/m 0,0 km/h (0 Bft) 98,58 %
11.02.2021 12:00 0,4 C 9,0 C 7,4 C 85 % 1030,4 hPa 0,2 l/m 1,00 h 0,00 h 422 W/m 0,0 km/h (0 Bft) 98,27 %
11.02.2021 13:00 2,7 C 9,1 C 8,5 C 69 % 1030,3 hPa 1,0 l/m 1,00 h 0,00 h 464 W/m 0,0 km/h (0 Bft) 94,81 %
11.02.2021 14:00 3,6 C 9,2 C 7,3 C 65 % 1030,3 hPa 1,4 l/m 1,00 h 0,00 h 422 W/m 0,0 km/h (0 Bft) 97,81 %
11.02.2021 15:00 3,2 C 7,0 C 3,9 C 65 % 1030,5 hPa 1,2 l/m 1,00 h 0,00 h 310 W/m 0,0 km/h (0 Bft) 96,73 %
11.02.2021 16:00 2,0 C 2,9 C -2,2 C 67 % 1030,7 hPa 0,6 l/m 0,87 h 0,00 h 140 W/m 0,4 km/h (0 Bft) 98,27 %
11.02.2021 17:00 -0,8 C -3,1 C -7,1 C 71 % 1030,8 hPa 0,0 l/m 0,00 h 0,00 h 15 W/m 0,0 km/h (0 Bft) 96,94 %
11.02.2021 18:00 -3,2 C -4,7 C -8,3 C 76 % 1031,4 hPa 0,0 l/m 0,00 h 0,00 h 0 W/m 0,0 km/h (0 Bft) 95,33 %
11.02.2021 19:00 -4,4 C -5,7 C -9,0 C 80 % 1031,7 hPa 0,0 l/m 0,00 h 0,00 h 0 W/m 0,0 km/h (0 Bft) 92,52 %
11.02.2021 20:00 -5,4 C -6,4 C -9,9 C 82 % 1031,7 hPa 0,0 l/m 0,00 h 0,00 h 0 W/m 0,0 km/h (0 Bft) 92,41 %
11.02.2021 21:00 -6,1 C -6,9 C -10,2 C 84 % 1031,8 hPa 0,0 l/m 0,00 h 0,00 h 0 W/m 0,0 km/h (0 Bft) 91,46 %
11.02.2021 22:00 -6,5 C -7,1 C -10,1 C 85 % 1032,2 hPa 0,0 l/m 0,00 h 0,00 h 0 W/m 0,0 km/h (0 Bft) 89,90 %
11.02.2021 23:00 -7,0 C -8,2 C -11,1 C 85 % 1032,4 hPa 0,0 l/m 0,00 h 0,00 h 0 W/m 0,0 km/h (0 Bft) 93,70 %
12.02.2021 00:00 -7,8 C -8,8 C -11,6 C 86 % 1032,8 hPa 0,0 l/m 0,00 h 0,00 h 0 W/m 0,0 km/h (0 Bft) 95,84 %
12.02.2021 01:00 -8,3 C -8,9 C -11,6 C 87 % 1032,7 hPa 0,0 l/m 0,00 h 0,00 h 0 W/m 0,0 km/h (0 Bft) 96,58 %
12.02.2021 02:00 -8,6 C -9,1 C -12,0 C 88 % 1032,7 hPa 0,0 l/m 0,00 h 0,00 h 0 W/m 0,0 km/h (0 Bft) 97,25 %
12.02.2021 03:00 -8,9 C -9,4 C -12,2 C 88 % 1032,5 hPa 0,0 l/m 0,00 h 0,00 h 0 W/m 0,0 km/h (0 Bft) 97,36 %
12.02.2021 04:00 -9,2 C -9,9 C -12,6 C 88 % 1032,6 hPa 0,0 l/m 0,00 h 0,00 h 0 W/m 0,0 km/h (0 Bft) 96,46 %
12.02.2021 05:00 -9,6 C -10,0 C -12,7 C 89 % 1033,1 hPa 0,0 l/m 0,00 h 0,00 h 0 W/m 0,0 km/h (0 Bft) 91,88 %
12.02.2021 06:00 -9,7 C -10,1 C -12,7 C 89 % 1033,1 hPa 0,0 l/m 0,00 h 0,00 h 0 W/m 0,0 km/h (0 Bft) 92,17 %
12.02.2021 07:00 -10,0 C -10,5 C -12,8 C 90 % 1033,3 hPa 0,0 l/m 0,00 h 0,00 h 2 W/m 0,0 km/h (0 Bft) 96,59 %
12.02.2021 08:00 -9,7 C -9,6 C -12,4 C 90 % 1033,3 hPa 0,0 l/m 0,00 h 0,00 h 12 W/m 0,4 km/h (0 Bft) 97,45 %
12.02.2021 09:00 -8,7 C -8,2 C -11,0 C 91 % 1033,7 hPa 0,0 l/m 0,00 h 0,00 h 22 W/m 0,9 km/h (0 Bft) 98,45 %
12.02.2021 10:00 -7,2 C -6,4 C -9,1 C 91 % 1033,8 hPa 0,0 l/m 0,00 h 0,00 h 29 W/m 0,0 km/h (0 Bft) 97,05 %
12.02.2021 11:00 -5,0 C -2,1 C -7,3 C 87 % 1033,9 hPa 0,0 l/m 0,33 h 0,00 h 175 W/m 0,3 km/h (0 Bft) 95,02 %
12.02.2021 12:00 -2,2 C 4,5 C 2,0 C 78 % 1033,8 hPa 0,2 l/m 1,00 h 0,00 h 464 W/m 0,4 km/h (0 Bft) 96,46 %
12.02.2021 13:00 -0,9 C 4,8 C 2,9 C 72 % 1033,8 hPa 0,0 l/m 1,00 h 0,00 h 475 W/m 0,7 km/h (0 Bft) 98,86 %
12.02.2021 14:00 -0,3 C 4,6 C 1,9 C 69 % 1033,6 hPa 0,0 l/m 1,00 h 0,00 h 410 W/m 0,5 km/h (0 Bft) 97,29 %
12.02.2021 15:00 -0,5 C 1,8 C -1,3 C 69 % 1033,6 hPa 0,2 l/m 0,77 h 0,00 h 230 W/m 0,9 km/h (0 Bft) 99,72 %
12.02.2021 16:00 -2,3 C -2,9 C -7,0 C 72 % 1033,8 hPa 0,0 l/m 0,13 h 0,00 h 62 W/m 0,5 km/h (0 Bft) 97,58 %
12.02.2021 17:00 -3,9 C -4,6 C -8,5 C 76 % 1034,3 hPa 0,0 l/m 0,00 h 0,00 h 15 W/m 1,0 km/h (0 Bft) 94,87 %
12.02.2021 18:00 -4,9 C -5,6 C -9,3 C 79 % 1035,0 hPa 0,0 l/m 0,00 h 0,00 h 0 W/m 0,8 km/h (0 Bft) 97,46 %
12.02.2021 19:00 -5,4 C -6,1 C -9,6 C 81 % 1035,6 hPa 0,0 l/m 0,00 h 0,00 h 0 W/m 0,0 km/h (0 Bft) 98,15 %
12.02.2021 20:00 -5,8 C -6,4 C -10,1 C 82 % 1035,9 hPa 0,0 l/m 0,00 h 0,00 h 0 W/m 0,2 km/h (0 Bft) 96,78 %
12.02.2021 21:00 -6,2 C -6,7 C -10,5 C 83 % 1036,2 hPa 0,0 l/m 0,00 h 0,00 h 0 W/m 1,3 km/h (1 Bft) 96,86 %
12.02.2021 22:00 -6,5 C -7,1 C -10,6 C 83 % 1036,8 hPa 0,0 l/m 0,00 h 0,00 h 0 W/m 0,0 km/h (0 Bft) 95,76 %
12.02.2021 23:00 -7,0 C -7,8 C -11,2 C 83 % 1037,3 hPa 0,0 l/m 0,00 h 0,00 h 0 W/m 0,0 km/h (0 Bft) 95,10 %
13.02.2021 00:00 -7,7 C -8,7 C -11,9 C 83 % 1037,9 hPa 0,0 l/m 0,00 h 0,00 h 0 W/m 0,3 km/h (0 Bft) 95,89 %
13.02.2021 01:00 -8,6 C -9,8 C -12,7 C 84 % 1038,4 hPa 0,0 l/m 0,00 h 0,00 h 0 W/m 0,0 km/h (0 Bft) 96,87 %
13.02.2021 02:00 -9,5 C -10,5 C -13,3 C 85 % 1038,7 hPa 0,0 l/m 0,00 h 0,00 h 0 W/m 0,0 km/h (0 Bft) 97,93 %
13.02.2021 03:00 -10,0 C -10,7 C -13,4 C 86 % 1038,8 hPa 0,0 l/m 0,00 h 0,00 h 0 W/m 0,0 km/h (0 Bft) 96,58 %
13.02.2021 04:00 -10,3 C -10,9 C -13,7 C 87 % 1038,8 hPa 0,0 l/m 0,00 h 0,00 h 0 W/m 0,0 km/h (0 Bft) 95,54 %
13.02.2021 05:00 -10,5 C -11,1 C -13,8 C 88 % 1039,0 hPa 0,0 l/m 0,00 h 0,00 h 0 W/m 0,0 km/h (0 Bft) 98,64 %
13.02.2021 06:00 -10,8 C -11,6 C -14,3 C 89 % 1039,1 hPa 0,0 l/m 0,00 h 0,00 h 0 W/m 0,0 km/h (0 Bft) 95,29 %
13.02.2021 07:00 -11,2 C -11,9 C -14,4 C 89 % 1039,5 hPa 0,0 l/m 0,00 h 0,00 h 3 W/m 0,0 km/h (0 Bft) 96,51 %
13.02.2021 08:00 -11,3 C -11,3 C -13,8 C 89 % 1039,8 hPa 0,0 l/m 0,00 h 0,00 h 12 W/m 0,0 km/h (0 Bft) 97,37 %
13.02.2021 09:00 -10,5 C -9,5 C -12,5 C 91 % 1039,8 hPa 0,0 l/m 0,00 h 0,00 h 21 W/m 0,0 km/h (0 Bft) 98,13 %
13.02.2021 10:00 -8,8 C -7,2 C -10,2 C 92 % 1040,0 hPa 0,0 l/m 0,00 h 0,00 h 28 W/m 0,0 km/h (0 Bft) 97,72 %
13.02.2021 11:00 -5,8 C -1,1 C -7,4 C 91 % 1040,4 hPa 0,0 l/m 0,30 h 0,00 h 172 W/m 0,0 km/h (0 Bft) 96,86 %
13.02.2021 12:00 -0,0 C 7,8 C 5,0 C 71 % 1040,3 hPa 0,2 l/m 1,00 h 0,00 h 488 W/m 0,4 km/h (0 Bft) 97,32 %
13.02.2021 13:00 1,8 C 7,4 C 6,4 C 60 % 1039,8 hPa 0,8 l/m 1,00 h 0,00 h 496 W/m 0,7 km/h (0 Bft) 97,94 %
13.02.2021 14:00 3,4 C 8,5 C 7,6 C 57 % 1039,3 hPa 0,8 l/m 1,00 h 0,00 h 446 W/m 1,1 km/h (0 Bft) 96,31 %
13.02.2021 15:00 3,6 C 7,5 C 6,1 C 55 % 1038,9 hPa 0,6 l/m 1,00 h 0,00 h 342 W/m 0,3 km/h (0 Bft) 98,35 %
13.02.2021 16:00 3,0 C 4,6 C 0,9 C 57 % 1038,6 hPa 0,4 l/m 0,93 h 0,00 h 170 W/m 0,1 km/h (0 Bft) 98,36 %
13.02.2021 17:00 0,8 C -1,3 C -5,5 C 61 % 1038,7 hPa 0,2 l/m 0,00 h 0,00 h 15 W/m 0,2 km/h (0 Bft) 96,58 %
13.02.2021 18:00 -1,6 C -3,1 C -7,1 C 66 % 1039,3 hPa 0,0 l/m 0,00 h 0,00 h 0 W/m 0,1 km/h (0 Bft) 95,22 %
13.02.2021 19:00 -2,8 C -4,5 C -8,3 C 70 % 1039,9 hPa 0,0 l/m 0,00 h 0,00 h 0 W/m 0,0 km/h (0 Bft) 95,62 %
13.02.2021 20:00 -4,3 C -5,2 C -9,0 C 73 % 1040,0 hPa 0,0 l/m 0,00 h 0,00 h 0 W/m 0,0 km/h (0 Bft) 97,52 %
13.02.2021 21:00 -4,7 C -5,3 C -9,0 C 77 % 1040,2 hPa 0,0 l/m 0,00 h 0,00 h 0 W/m 0,0 km/h (0 Bft) 96,32 %
13.02.2021 22:00 -5,0 C -5,6 C -9,2 C 78 % 1040,3 hPa 0,0 l/m 0,00 h 0,00 h 0 W/m 0,0 km/h (0 Bft) 94,90 %
13.02.2021 23:00 -5,1 C -5,6 C -8,8 C 80 % 1040,3 hPa 0,0 l/m 0,00 h 0,00 h 0 W/m 0,1 km/h (0 Bft) 97,30 %
14.02.2021 00:00 -4,8 C -5,1 C -8,5 C 79 % 1039,4 hPa 0,0 l/m 0,00 h 0,00 h 0 W/m 0,7 km/h (0 Bft) 92,99 %
14.02.2021 01:00 -4,2 C -4,7 C -8,3 C 77 % 1039,1 hPa 0,0 l/m 0,00 h 0,00 h 0 W/m 2,8 km/h (1 Bft) 97,87 %
14.02.2021 02:00 -4,9 C -5,6 C -8,8 C 78 % 1039,9 hPa 0,0 l/m 0,00 h 0,00 h 0 W/m 1,4 km/h (1 Bft) 98,29 %
14.02.2021 03:00 -4,8 C -5,2 C -8,7 C 79 % 1039,5 hPa 0,0 l/m 0,00 h 0,00 h 0 W/m 1,3 km/h (1 Bft) 98,29 %
14.02.2021 04:00 -4,6 C -5,0 C -8,5 C 78 % 1039,0 hPa 0,0 l/m 0,00 h 0,00 h 0 W/m 1,8 km/h (1 Bft) 95,23 %
14.02.2021 05:00 -4,7 C -5,2 C -8,8 C 78 % 1038,8 hPa 0,0 l/m 0,00 h 0,00 h 0 W/m 3,1 km/h (1 Bft) 97,43 %
14.02.2021 06:00 -5,0 C -5,5 C -8,8 C 79 % 1038,4 hPa 0,0 l/m 0,00 h 0,00 h 0 W/m 1,4 km/h (1 Bft) 98,20 %
14.02.2021 07:00 -5,3 C -5,9 C -9,1 C 80 % 1038,5 hPa 0,0 l/m 0,00 h 0,00 h 5 W/m 1,4 km/h (1 Bft) 95,72 %
14.02.2021 08:00 -4,9 C -5,1 C -8,5 C 78 % 1038,7 hPa 0,0 l/m 0,00 h 0,00 h 20 W/m 1,2 km/h (1 Bft) 96,16 %
14.02.2021 09:00 -3,8 C -4,0 C -7,5 C 74 % 1038,9 hPa 0,0 l/m 0,00 h 0,00 h 28 W/m 2,8 km/h (1 Bft) 94,94 %
14.02.2021 10:00 -2,4 C -2,4 C -6,1 C 71 % 1038,6 hPa 0,0 l/m 0,00 h 0,00 h 50 W/m 2,5 km/h (1 Bft) 99,21 %
14.02.2021 11:00 -0,6 C 0,8 C -3,9 C 66 % 1038,3 hPa 0,0 l/m 0,40 h 0,00 h 200 W/m 4,0 km/h (1 Bft) 98,86 %
14.02.2021 12:00 1,7 C 5,8 C 3,5 C 60 % 1037,9 hPa 0,0 l/m 1,00 h 0,00 h 478 W/m 4,5 km/h (1 Bft) 97,76 %
14.02.2021 13:00 2,8 C 4,6 C 1,9 C 55 % 1037,2 hPa 0,2 l/m 1,00 h 0,00 h 311 W/m 4,1 km/h (1 Bft) 96,67 %
14.02.2021 14:00 4,0 C 6,7 C 4,8 C 51 % 1036,6 hPa 0,4 l/m 1,00 h 0,00 h 377 W/m 3,4 km/h (1 Bft) 94,95 %
14.02.2021 15:00 3,7 C 4,4 C 1,0 C 50 % 1035,7 hPa 0,2 l/m 0,97 h 0,00 h 183 W/m 3,8 km/h (1 Bft) 98,36 %
14.02.2021 16:00 3,9 C 4,5 C 0,6 C 49 % 1034,9 hPa 0,0 l/m 1,00 h 0,00 h 146 W/m 2,7 km/h (1 Bft) 96,36 %
14.02.2021 17:00 2,9 C 2,4 C -1,8 C 53 % 1034,3 hPa 0,0 l/m 0,43 h 0,00 h 27 W/m 2,3 km/h (1 Bft) 96,63 %
14.02.2021 18:00 2,0 C 1,3 C -2,8 C 56 % 1033,9 hPa 0,0 l/m 0,00 h 0,00 h 0 W/m 2,6 km/h (1 Bft) 98,58 %
14.02.2021 19:00 1,4 C 0,8 C -3,3 C 57 % 1033,7 hPa 0,0 l/m 0,00 h 0,00 h 0 W/m 2,5 km/h (1 Bft) 97,66 %
14.02.2021 20:00 1,1 C 0,5 C -3,5 C 59 % 1033,2 hPa 0,0 l/m 0,00 h 0,00 h 0 W/m 3,5 km/h (1 Bft) 93,65 %
14.02.2021 21:00 0,9 C 0,6 C -3,7 C 60 % 1032,5 hPa 0,0 l/m 0,00 h 0,00 h 0 W/m 3,5 km/h (1 Bft) 98,37 %
14.02.2021 22:00 0,9 C 0,5 C -3,8 C 59 % 1031,8 hPa 0,0 l/m 0,00 h 0,00 h 0 W/m 3,7 km/h (1 Bft) 96,72 %
14.02.2021 23:00 0,8 C 0,4 C -3,8 C 59 % 1031,8 hPa 0,0 l/m 0,00 h 0,00 h 0 W/m 3,1 km/h (1 Bft) 98,29 %
Min-Datum _ 13.02.21 13.02.21 13.02.21 14.02.21 08.02.21 - - - - 08.02.21 09.02.21
_ Min-Zeit 08:00 07:16 05:36 16:12 01:36 - - - - 00:00 00:02
Minimum _ -11,5 C -12,2 C -14,4 C 48 % 999,6 hPa - - - - 0,0 km/h (0 Bft) 11,11 %
Max-Datum _ 14.02.21 11.02.21 11.02.21 11.02.21 13.02.21 11.02.21 11.02.21 09.02.21 10.02.21 14.02.21 08.02.21
_ Max-Zeit 14:26 13:18 12:38 11:08 11:28 14:00 13:05 12:08 13:06 20:54 00:00
Maximum _ 4,4 C 10,0 C 10,0 C 96 % 1040,5 hPa 1,4 l/m 0,08 h 0,07 h 584 W/m 29,0 km/h
S (5 Bft)
100,00 %
Durchschnitt _ -5,0 C -4,6 C -7,3 C 81 % 1023,2 hPa #11,8 l/m #25:56 h #6 min. 149 W/m 0,6 km/h (0 Bft) 96,65 %
© 2021 W. Hausmann